Time;durP1;ratioP1;P1;durP2;ratioP2;P2;SDS_P1;SDS_P2;PMS_P1;PMS_P2;Temp;Humidity;BMP_temperature;BMP_pressure;BME280_temperature;BME280_humidity;BME280_pressure;Samples;Min_cycle;Max_cycle;Signal;HPM_P1;HPM_P2
2024/03/03 00:01:37;;;;;;;2.28;1.70;;;12.10;70.00;;;;;;5071058;28;20063;-66
2024/03/03 00:04:03;;;;;;;2.42;1.70;;;12.20;70.10;;;;;;5067491;28;20031;-68
2024/03/03 00:06:28;;;;;;;1.75;1.40;;;12.20;70.10;;;;;;5072086;28;21354;-66
2024/03/03 00:08:56;;;;;;;1.98;1.42;;;12.20;70.10;;;;;;5072142;28;20074;-65
2024/03/03 00:11:21;;;;;;;3.20;1.90;;;12.20;70.20;;;;;;5070570;28;20016;-66
2024/03/03 00:13:47;;;;;;;2.33;1.88;;;12.20;70.30;;;;;;5069985;28;20158;-66
2024/03/03 00:16:12;;;;;;;3.15;2.00;;;12.20;70.30;;;;;;5070657;28;20512;-65
2024/03/03 00:18:38;;;;;;;2.15;1.55;;;12.20;70.30;;;;;;5077025;28;20032;-65
2024/03/03 00:21:05;;;;;;;2.13;1.60;;;12.20;70.30;;;;;;5077106;28;20024;-66
2024/03/03 00:23:31;;;;;;;2.80;2.03;;;12.20;70.30;;;;;;5065419;28;20021;-65
2024/03/03 00:25:56;;;;;;;3.42;2.10;;;12.20;70.40;;;;;;5065680;28;20021;-65
2024/03/03 00:28:22;;;;;;;2.55;1.85;;;12.20;70.50;;;;;;5071989;28;20111;-65
2024/03/03 00:30:48;;;;;;;3.90;2.28;;;12.20;70.50;;;;;;5077264;28;20032;-66
2024/03/03 00:33:14;;;;;;;2.65;2.08;;;12.20;70.50;;;;;;5063996;28;20027;-69
2024/03/03 00:35:40;;;;;;;3.55;2.33;;;12.30;70.60;;;;;;5072278;28;20059;-67
2024/03/03 00:38:06;;;;;;;2.95;1.98;;;12.30;70.60;;;;;;5072467;28;20036;-66
2024/03/03 00:40:32;;;;;;;2.78;2.03;;;12.30;70.60;;;;;;5068490;28;20028;-65
2024/03/03 00:42:58;;;;;;;2.75;1.98;;;12.20;70.80;;;;;;5070237;28;20023;-65
2024/03/03 00:45:24;;;;;;;2.92;2.22;;;12.20;70.90;;;;;;5075330;28;20016;-66
2024/03/03 00:47:49;;;;;;;2.38;1.77;;;12.20;71.10;;;;;;5067527;28;20035;-65
2024/03/03 00:50:15;;;;;;;2.05;1.50;;;12.10;71.10;;;;;;5068931;28;20509;-65
2024/03/03 00:52:40;;;;;;;3.05;2.03;;;12.10;71.20;;;;;;5069732;28;20034;-65
2024/03/03 00:55:07;;;;;;;3.00;2.10;;;12.00;71.30;;;;;;5071354;28;20023;-65
2024/03/03 00:57:32;;;;;;;2.83;1.90;;;12.00;71.40;;;;;;5070188;28;20025;-65
2024/03/03 00:59:58;;;;;;;2.13;1.58;;;12.00;71.50;;;;;;5073305;28;20028;-67
2024/03/03 01:02:24;;;;;;;2.53;1.83;;;12.00;71.60;;;;;;5067831;28;20028;-65
2024/03/03 01:04:50;;;;;;;2.80;1.95;;;12.00;71.70;;;;;;5069505;28;20092;-66
2024/03/03 01:07:16;;;;;;;2.50;1.75;;;12.00;71.70;;;;;;5068804;28;20267;-65
2024/03/03 01:09:41;;;;;;;4.15;2.10;;;12.00;71.90;;;;;;5065732;28;20036;-64
2024/03/03 01:12:07;;;;;;;2.42;1.88;;;11.90;71.80;;;;;;5067235;28;20440;-65
2024/03/03 01:14:32;;;;;;;2.50;1.80;;;12.00;71.80;;;;;;5077327;28;20458;-66
2024/03/03 01:16:58;;;;;;;2.00;1.45;;;12.00;71.90;;;;;;5074436;28;20035;-67
2024/03/03 01:19:24;;;;;;;2.70;1.80;;;12.00;71.90;;;;;;5071346;28;20024;-66
2024/03/03 01:21:49;;;;;;;3.55;2.28;;;12.00;72.00;;;;;;5075168;28;20024;-69
2024/03/03 01:24:15;;;;;;;3.35;2.10;;;11.90;72.10;;;;;;5079303;28;20103;-66
2024/03/03 01:26:40;;;;;;;2.60;1.75;;;11.90;72.10;;;;;;5069842;28;20028;-65
2024/03/03 01:29:06;;;;;;;2.05;1.42;;;12.00;72.20;;;;;;5070569;28;20028;-66
2024/03/03 01:31:32;;;;;;;2.20;1.48;;;12.00;72.10;;;;;;5068476;28;20020;-65
2024/03/03 01:33:57;;;;;;;3.10;2.10;;;12.00;72.00;;;;;;5069456;28;20037;-65
2024/03/03 01:36:23;;;;;;;2.90;2.00;;;12.00;72.20;;;;;;5073913;28;20180;-67
2024/03/03 01:38:48;;;;;;;3.08;1.90;;;12.00;72.30;;;;;;5072011;28;20118;-66
2024/03/03 01:41:14;;;;;;;2.92;1.90;;;12.00;72.30;;;;;;5072058;28;20357;-66
2024/03/03 01:43:41;;;;;;;4.25;2.03;;;12.00;72.30;;;;;;5072619;28;20043;-65
2024/03/03 01:46:09;;;;;;;4.88;2.30;;;12.00;72.40;;;;;;5075629;28;20024;-66
2024/03/03 01:48:36;;;;;;;2.80;2.03;;;12.00;72.40;;;;;;5068313;28;20028;-66
2024/03/03 01:51:03;;;;;;;4.00;2.65;;;12.00;72.40;;;;;;5066280;28;20115;-66
2024/03/03 01:53:29;;;;;;;4.75;2.70;;;12.10;72.60;;;;;;5068167;28;20028;-66
2024/03/03 01:55:54;;;;;;;4.85;2.85;;;12.00;72.70;;;;;;5073610;28;20413;-67
2024/03/03 01:58:20;;;;;;;5.40;2.60;;;12.00;72.70;;;;;;5073762;28;20058;-67
2024/03/03 02:00:46;;;;;;;3.60;2.20;;;12.00;72.70;;;;;;5071302;28;20105;-67
2024/03/03 02:03:11;;;;;;;2.92;2.03;;;12.10;72.60;;;;;;5072339;28;20024;-66
2024/03/03 02:05:38;;;;;;;3.95;1.90;;;12.10;72.70;;;;;;5071093;28;20105;-67
2024/03/03 02:08:05;;;;;;;3.95;2.15;;;12.00;72.60;;;;;;5073243;28;20025;-66
2024/03/03 02:10:32;;;;;;;4.57;2.85;;;12.00;72.80;;;;;;5067048;28;20064;-66
2024/03/03 02:12:57;;;;;;;4.40;2.40;;;11.90;73.10;;;;;;5071723;28;20024;-65
2024/03/03 02:15:23;;;;;;;3.05;2.08;;;11.90;73.10;;;;;;5073805;28;20029;-66
2024/03/03 02:17:50;;;;;;;3.10;2.10;;;11.90;73.10;;;;;;5072397;28;20025;-65
2024/03/03 02:20:15;;;;;;;4.18;2.60;;;11.90;73.10;;;;;;5069548;28;20025;-67
2024/03/03 02:22:41;;;;;;;4.00;2.38;;;11.80;73.20;;;;;;5071651;28;21057;-66
2024/03/03 02:25:08;;;;;;;4.03;2.40;;;11.70;73.30;;;;;;5070796;28;20035;-66
2024/03/03 02:27:35;;;;;;;3.70;2.22;;;11.70;73.50;;;;;;5071866;28;20101;-68
2024/03/03 02:30:02;;;;;;;4.05;2.55;;;11.60;73.60;;;;;;5077627;28;20167;-66
2024/03/03 02:32:29;;;;;;;3.75;1.90;;;11.60;73.60;;;;;;5080199;28;20020;-65
2024/03/03 02:34:55;;;;;;;3.65;2.00;;;11.50;73.70;;;;;;5073290;28;20129;-65
2024/03/03 02:37:20;;;;;;;3.90;2.50;;;11.50;73.80;;;;;;5070398;28;20035;-64
2024/03/03 02:39:46;;;;;;;2.97;2.13;;;11.40;73.90;;;;;;5066485;28;20029;-67
2024/03/03 02:42:12;;;;;;;2.50;1.90;;;11.40;74.00;;;;;;5076162;28;20060;-64
2024/03/03 02:44:37;;;;;;;2.33;1.75;;;11.30;74.10;;;;;;5072738;28;20032;-64
2024/03/03 02:47:03;;;;;;;2.08;1.55;;;11.30;74.20;;;;;;5073301;28;20020;-66
2024/03/03 02:49:28;;;;;;;2.15;1.60;;;11.30;74.20;;;;;;5072951;28;20025;-66
2024/03/03 02:51:55;;;;;;;2.72;1.80;;;11.20;74.20;;;;;;5073069;28;20032;-66
2024/03/03 02:54:21;;;;;;;1.98;1.60;;;11.20;74.30;;;;;;5070211;28;20070;-65
2024/03/03 02:56:47;;;;;;;2.30;1.70;;;11.20;74.30;;;;;;5076113;28;20022;-66
2024/03/03 02:59:13;;;;;;;2.35;1.83;;;11.20;74.40;;;;;;5070800;28;20032;-65
2024/03/03 03:01:38;;;;;;;2.78;2.08;;;11.10;74.40;;;;;;5071365;28;20047;-66
2024/03/03 03:04:04;;;;;;;2.83;1.98;;;11.00;74.50;;;;;;5070928;28;20123;-68
2024/03/03 03:06:29;;;;;;;3.00;2.15;;;11.00;74.60;;;;;;5069285;28;20021;-66
2024/03/03 03:08:55;;;;;;;3.97;2.30;;;11.00;74.60;;;;;;5075444;28;20055;-65
2024/03/03 03:11:21;;;;;;;3.42;2.30;;;11.00;74.80;;;;;;5068102;28;20449;-66
2024/03/03 03:13:46;;;;;;;4.00;2.20;;;10.90;74.90;;;;;;5072100;28;20033;-66
2024/03/03 03:16:12;;;;;;;3.85;2.40;;;10.90;75.00;;;;;;5070425;28;20482;-66
2024/03/03 03:18:37;;;;;;;2.85;2.08;;;10.80;74.90;;;;;;5073505;28;20024;-66
2024/03/03 03:21:06;;;;;;;3.20;2.03;;;10.80;75.00;;;;;;5070306;28;20390;-66
2024/03/03 03:23:32;;;;;;;3.42;2.17;;;10.80;75.00;;;;;;5071286;28;20056;-66
2024/03/03 03:25:58;;;;;;;3.20;2.25;;;10.70;75.30;;;;;;5068843;28;20093;-65
2024/03/03 03:28:23;;;;;;;2.95;2.08;;;10.70;75.30;;;;;;5069516;28;20562;-67
2024/03/03 03:30:49;;;;;;;2.92;2.00;;;10.70;75.30;;;;;;5065259;28;20077;-68
2024/03/03 03:33:15;;;;;;;3.15;2.17;;;10.60;75.30;;;;;;5069929;28;20107;-65
2024/03/03 03:35:41;;;;;;;3.47;2.40;;;10.60;75.40;;;;;;5071715;28;20033;-66
2024/03/03 03:38:07;;;;;;;3.53;2.60;;;10.60;75.50;;;;;;5070336;28;20450;-66
2024/03/03 03:40:33;;;;;;;3.25;2.50;;;10.50;75.60;;;;;;5070946;28;20030;-63
2024/03/03 03:42:58;;;;;;;3.42;2.33;;;10.50;75.60;;;;;;5069888;28;20053;-65
2024/03/03 03:45:24;;;;;;;2.55;2.03;;;10.50;75.60;;;;;;5067701;28;20099;-64
2024/03/03 03:47:49;;;;;;;3.42;2.40;;;10.60;75.60;;;;;;5072893;28;20021;-67
2024/03/03 03:50:15;;;;;;;3.30;2.20;;;10.60;75.60;;;;;;5074774;28;20075;-64
2024/03/03 03:52:41;;;;;;;2.97;2.10;;;10.50;75.50;;;;;;5075440;28;20541;-65
2024/03/03 03:55:07;;;;;;;4.05;2.35;;;10.50;75.50;;;;;;5074518;28;20021;-65
2024/03/03 03:57:33;;;;;;;4.25;2.70;;;10.50;75.50;;;;;;5075174;28;20024;-65
2024/03/03 03:59:59;;;;;;;3.25;2.10;;;10.50;75.70;;;;;;5068727;28;20017;-65
2024/03/03 04:02:27;;;;;;;2.60;2.05;;;10.50;75.70;;;;;;5070260;28;20025;-65
2024/03/03 04:04:52;;;;;;;3.00;2.15;;;10.50;75.70;;;;;;5069343;28;20024;-66
2024/03/03 04:07:18;;;;;;;2.88;2.00;;;10.50;75.60;;;;;;5067505;28;20349;-65
2024/03/03 04:09:43;;;;;;;3.58;2.30;;;10.50;75.60;;;;;;5065833;28;20086;-68
2024/03/03 04:12:09;;;;;;;3.25;2.30;;;10.50;75.60;;;;;;5069746;28;20036;-65
2024/03/03 04:14:34;;;;;;;3.47;2.50;;;10.50;75.60;;;;;;5067261;28;20020;-66
2024/03/03 04:17:01;;;;;;;4.43;3.20;;;10.50;75.60;;;;;;5067854;28;20063;-65
2024/03/03 04:19:26;;;;;;;5.30;3.08;;;10.50;75.80;;;;;;5065906;28;20091;-64
2024/03/03 04:21:52;;;;;;;4.13;2.92;;;10.40;75.70;;;;;;5064193;28;20032;-65
2024/03/03 04:24:17;;;;;;;4.45;3.00;;;10.40;75.80;;;;;;5069428;28;20031;-65
2024/03/03 04:26:43;;;;;;;3.70;2.50;;;10.40;75.90;;;;;;5064005;28;20128;-64
2024/03/03 04:29:09;;;;;;;3.78;2.70;;;10.40;75.90;;;;;;5076231;28;20028;-64
2024/03/03 04:31:44;;;;;;;5.35;3.33;;;10.40;76.00;;;;;;5075359;28;20055;-65
2024/03/03 04:34:10;;;;;;;4.65;2.80;;;10.30;76.20;;;;;;5072605;28;20093;-64
2024/03/03 04:36:36;;;;;;;4.55;2.70;;;10.20;76.20;;;;;;5073875;28;20518;-66
2024/03/03 04:39:03;;;;;;;3.95;2.50;;;10.20;76.20;;;;;;5067469;28;20050;-66
2024/03/03 04:41:31;;;;;;;3.40;2.13;;;10.30;76.30;;;;;;5073019;28;20013;-65
2024/03/03 04:43:57;;;;;;;3.80;2.55;;;10.30;76.20;;;;;;5070071;28;20029;-65
2024/03/03 04:46:22;;;;;;;3.40;2.45;;;10.20;76.20;;;;;;5072529;28;20483;-67
2024/03/03 04:48:48;;;;;;;4.45;2.47;;;10.20;76.20;;;;;;5067875;28;20029;-66
2024/03/03 04:51:14;;;;;;;3.15;2.42;;;10.20;76.20;;;;;;5070120;28;20031;-65
2024/03/03 04:53:40;;;;;;;3.70;2.58;;;10.20;76.20;;;;;;5067617;28;20044;-66
2024/03/03 04:56:06;;;;;;;3.20;2.33;;;10.20;76.20;;;;;;5071718;28;20024;-67
2024/03/03 04:58:32;;;;;;;4.57;2.67;;;10.20;76.30;;;;;;5070375;28;20127;-66
2024/03/03 05:00:57;;;;;;;3.28;2.17;;;10.20;76.30;;;;;;5071755;28;20013;-66
2024/03/03 05:03:24;;;;;;;2.78;2.20;;;10.20;76.30;;;;;;5064820;28;20028;-66
2024/03/03 05:05:50;;;;;;;3.20;2.13;;;10.20;76.30;;;;;;5068972;28;20038;-64
2024/03/03 05:08:16;;;;;;;3.83;2.25;;;10.30;76.30;;;;;;5069320;28;20475;-65
2024/03/03 05:10:41;;;;;;;3.80;2.40;;;10.20;76.20;;;;;;5065123;28;20041;-66
2024/03/03 05:13:07;;;;;;;4.13;2.80;;;10.20;76.30;;;;;;5071087;28;20103;-67
2024/03/03 05:15:32;;;;;;;3.97;2.70;;;10.10;76.40;;;;;;5074936;28;20067;-66
2024/03/03 05:17:59;;;;;;;3.97;2.80;;;10.20;76.60;;;;;;5076149;28;20463;-66
2024/03/03 05:20:24;;;;;;;4.13;2.92;;;10.20;76.50;;;;;;5075868;28;20024;-66
2024/03/03 05:22:50;;;;;;;3.97;2.78;;;10.20;76.50;;;;;;5061865;28;20571;-68
2024/03/03 05:25:16;;;;;;;4.57;2.78;;;10.20;76.50;;;;;;5068345;28;20032;-65
2024/03/03 05:27:41;;;;;;;3.97;2.50;;;10.10;76.60;;;;;;5064751;28;20095;-66
2024/03/03 05:30:07;;;;;;;3.95;2.80;;;10.10;76.50;;;;;;5065604;28;20036;-65
2024/03/03 05:32:33;;;;;;;3.28;2.30;;;10.20;76.50;;;;;;5062847;28;20087;-67
2024/03/03 05:34:59;;;;;;;5.82;3.33;;;10.20;76.50;;;;;;5065621;28;20039;-69
2024/03/03 05:37:25;;;;;;;4.10;2.70;;;10.20;76.60;;;;;;5066459;28;20025;-63
2024/03/03 05:39:50;;;;;;;4.05;2.67;;;10.20;76.60;;;;;;5065615;28;20035;-63
2024/03/03 05:42:17;;;;;;;4.60;2.85;;;10.20;76.60;;;;;;5064797;28;20371;-66
2024/03/03 05:44:43;;;;;;;4.32;2.50;;;10.20;76.70;;;;;;5065141;28;20028;-65
2024/03/03 05:47:09;;;;;;;3.53;2.58;;;10.20;76.60;;;;;;5064827;28;20031;-65
2024/03/03 05:49:36;;;;;;;4.45;2.78;;;10.10;76.60;;;;;;5067093;28;20020;-64
2024/03/03 05:52:02;;;;;;;5.22;3.00;;;10.20;76.70;;;;;;5068241;28;20024;-64
2024/03/03 05:54:27;;;;;;;4.25;2.80;;;10.10;76.70;;;;;;5066777;28;20572;-63
2024/03/03 05:56:53;;;;;;;3.70;2.88;;;10.10;76.70;;;;;;5066842;28;20119;-65
2024/03/03 05:59:19;;;;;;;3.38;2.30;;;10.10;76.80;;;;;;5064183;28;20029;-64
2024/03/03 06:01:48;;;;;;;4.32;2.85;;;10.10;76.70;;;;;;5069750;28;20029;-64
2024/03/03 06:04:15;;;;;;;4.38;2.90;;;10.10;77.00;;;;;;5067275;28;20028;-65
2024/03/03 06:06:41;;;;;;;4.55;2.92;;;10.00;77.20;;;;;;5068142;28;20020;-65
2024/03/03 06:09:10;;;;;;;4.28;2.83;;;10.00;77.20;;;;;;5071167;28;20100;-65
2024/03/03 06:11:42;;;;;;;4.40;3.03;;;10.00;77.20;;;;;;5064030;28;20047;-65
2024/03/03 06:14:09;;;;;;;4.55;3.10;;;10.00;77.40;;;;;;5062179;28;20478;-66
2024/03/03 06:16:35;;;;;;;4.70;3.28;;;10.00;77.50;;;;;;5064230;28;20029;-64
2024/03/03 06:19:02;;;;;;;4.15;2.88;;;9.90;77.40;;;;;;5065999;28;20103;-69
2024/03/03 06:21:28;;;;;;;4.28;3.03;;;10.00;77.50;;;;;;5066419;28;20017;-67
2024/03/03 06:23:54;;;;;;;4.28;2.45;;;10.00;77.50;;;;;;5065602;28;20066;-66
2024/03/03 06:26:19;;;;;;;4.45;2.92;;;10.10;77.40;;;;;;5066262;28;20039;-65
2024/03/03 06:28:45;;;;;;;5.32;3.10;;;10.10;77.40;;;;;;5070691;28;20036;-64
2024/03/03 06:31:11;;;;;;;4.13;2.83;;;10.00;77.50;;;;;;5070807;28;20035;-65
2024/03/03 06:33:37;;;;;;;4.25;2.78;;;10.10;77.60;;;;;;5070328;28;20032;-67
2024/03/03 06:36:03;;;;;;;3.78;2.70;;;10.10;77.50;;;;;;5069631;28;20024;-67
2024/03/03 06:38:29;;;;;;;3.97;2.80;;;10.10;77.50;;;;;;5073093;28;20047;-65
2024/03/03 06:40:55;;;;;;;5.50;2.83;;;10.10;77.70;;;;;;5071009;28;20028;-67
2024/03/03 06:43:20;;;;;;;3.67;2.30;;;10.20;77.50;;;;;;5075063;28;20051;-67
2024/03/03 06:45:46;;;;;;;3.70;2.22;;;10.20;77.40;;;;;;5068337;28;20110;-65
2024/03/03 06:48:12;;;;;;;3.17;2.20;;;10.30;77.30;;;;;;5069006;28;20086;-65
2024/03/03 06:50:38;;;;;;;2.63;1.77;;;10.30;77.10;;;;;;5066275;28;20087;-66
2024/03/03 06:53:04;;;;;;;2.95;2.10;;;10.40;77.00;;;;;;5067518;28;20024;-66
2024/03/03 06:55:30;;;;;;;3.10;2.10;;;10.40;77.00;;;;;;5069524;28;20027;-65
2024/03/03 06:57:55;;;;;;;3.25;2.25;;;10.40;77.10;;;;;;5065751;28;20029;-64
2024/03/03 07:00:21;;;;;;;3.10;2.10;;;10.40;77.20;;;;;;5068764;28;20029;-67
2024/03/03 07:05:31;;;;;;;3.88;2.38;;;10.50;77.30;;;;;;5069800;28;20031;-64
2024/03/03 07:07:57;;;;;;;3.15;2.30;;;10.40;77.40;;;;;;5068240;28;20406;-64
2024/03/03 07:10:23;;;;;;;3.65;2.20;;;10.40;77.30;;;;;;5066377;28;20164;-65
2024/03/03 07:12:48;;;;;;;3.58;2.35;;;10.50;77.40;;;;;;5069693;28;20028;-65
2024/03/03 07:15:14;;;;;;;4.78;3.10;;;10.50;77.30;;;;;;5068379;28;20437;-65
2024/03/03 07:17:39;;;;;;;5.38;3.53;;;10.50;77.50;;;;;;5068055;28;20028;-67
2024/03/03 07:20:06;;;;;;;3.97;2.63;;;10.50;77.50;;;;;;5065917;28;20082;-65
2024/03/03 07:22:34;;;;;;;5.20;3.22;;;10.50;77.50;;;;;;5066750;28;20025;-67
2024/03/03 07:25:02;;;;;;;5.43;3.17;;;10.50;77.50;;;;;;5069185;28;20024;-66
2024/03/03 07:27:28;;;;;;;4.55;2.97;;;10.50;77.40;;;;;;5064307;28;20016;-64
2024/03/03 07:29:53;;;;;;;4.88;3.08;;;10.40;77.60;;;;;;5069202;28;20031;-65
2024/03/03 07:32:19;;;;;;;3.38;2.53;;;10.40;77.60;;;;;;5069924;28;20025;-65
2024/03/03 07:34:48;;;;;;;6.25;3.85;;;10.40;77.70;;;;;;5067876;28;20051;-66
2024/03/03 07:37:14;;;;;;;5.30;3.28;;;10.40;78.00;;;;;;5066890;28;20021;-66
2024/03/03 07:39:41;;;;;;;6.88;3.50;;;10.30;78.00;;;;;;5067057;28;20040;-67
2024/03/03 07:42:06;;;;;;;4.15;2.65;;;10.30;78.00;;;;;;5062149;28;20544;-65
2024/03/03 07:44:32;;;;;;;3.88;2.50;;;10.40;77.90;;;;;;5067484;28;20025;-68
2024/03/03 07:46:57;;;;;;;3.60;2.58;;;10.50;77.80;;;;;;5067762;28;20486;-66
2024/03/03 07:49:23;;;;;;;3.97;2.70;;;10.50;77.70;;;;;;5073413;28;20150;-65
2024/03/03 07:51:49;;;;;;;3.47;2.42;;;10.50;78.30;;;;;;5072812;28;20032;-65
2024/03/03 07:54:14;;;;;;;3.53;2.45;;;10.60;77.60;;;;;;5067066;28;20051;-65
2024/03/03 07:56:40;;;;;;;2.58;1.90;;;10.60;77.50;;;;;;5072539;28;20052;-65
2024/03/03 07:59:06;;;;;;;2.42;1.77;;;10.70;77.50;;;;;;5068696;28;20028;-68
2024/03/03 08:01:34;;;;;;;2.47;1.90;;;10.70;77.40;;;;;;5063665;28;20019;-68
2024/03/03 08:04:00;;;;;;;3.20;2.08;;;10.70;77.30;;;;;;5061557;28;20028;-67
2024/03/03 08:06:25;;;;;;;3.22;1.95;;;10.90;77.20;;;;;;5062925;28;20384;-65
2024/03/03 08:08:51;;;;;;;2.35;1.73;;;11.00;76.90;;;;;;5062427;28;20029;-66
2024/03/03 08:11:17;;;;;;;2.13;1.58;;;11.10;76.80;;;;;;5067615;28;20024;-66
2024/03/03 08:13:42;;;;;;;3.88;2.53;;;11.10;76.60;;;;;;5067806;28;20028;-68
2024/03/03 08:16:08;;;;;;;4.38;2.80;;;11.10;76.70;;;;;;5066224;28;20040;-66
2024/03/03 08:18:33;;;;;;;4.00;2.20;;;11.20;76.70;;;;;;5063605;28;20621;-66
2024/03/03 08:21:00;;;;;;;3.70;2.47;;;11.20;76.60;;;;;;5065028;28;20111;-66
2024/03/03 08:23:26;;;;;;;2.50;1.83;;;11.30;76.60;;;;;;5064514;28;20020;-66
2024/03/03 08:25:51;;;;;;;5.72;3.10;;;11.30;77.20;;;;;;5063014;28;20021;-65
2024/03/03 08:28:17;;;;;;;8.05;3.67;;;11.30;76.50;;;;;;5065260;28;20024;-67
2024/03/03 08:30:43;;;;;;;3.47;2.67;;;11.20;76.60;;;;;;5066028;28;20044;-65
2024/03/03 08:33:09;;;;;;;4.78;3.15;;;11.30;76.60;;;;;;5065345;28;20024;-67
2024/03/03 08:35:34;;;;;;;6.00;3.63;;;11.40;76.60;;;;;;5067519;28;20039;-68
2024/03/03 08:38:00;;;;;;;5.97;3.67;;;11.40;76.60;;;;;;5062552;28;20447;-65
2024/03/03 08:40:25;;;;;;;6.22;3.78;;;11.40;76.50;;;;;;5063255;28;20514;-65
2024/03/03 08:42:52;;;;;;;6.30;4.28;;;11.50;76.40;;;;;;5065977;28;20029;-64
2024/03/03 08:45:17;;;;;;;4.70;3.00;;;11.50;76.30;;;;;;5067392;28;20020;-65
2024/03/03 08:47:43;;;;;;;4.63;3.15;;;11.60;76.20;;;;;;5067184;28;20096;-64
2024/03/03 08:50:10;;;;;;;5.00;3.00;;;11.70;76.10;;;;;;5067467;28;20048;-66
2024/03/03 08:52:39;;;;;;;6.20;3.90;;;11.90;75.90;;;;;;5065172;28;20107;-65
2024/03/03 08:55:05;;;;;;;6.47;3.80;;;12.00;75.70;;;;;;5062676;28;20056;-68
2024/03/03 08:57:31;;;;;;;7.55;4.07;;;12.00;75.30;;;;;;5066678;28;20042;-67
2024/03/03 08:59:57;;;;;;;5.95;3.75;;;12.00;75.20;;;;;;5059746;28;20024;-65
2024/03/03 09:02:23;;;;;;;5.15;3.08;;;12.00;75.40;;;;;;5061394;28;20021;-67
2024/03/03 09:04:48;;;;;;;4.93;3.13;;;12.10;75.30;;;;;;5059922;28;20051;-66
2024/03/03 09:07:14;;;;;;;3.80;2.70;;;12.20;75.20;;;;;;5066256;28;20383;-65
2024/03/03 09:09:39;;;;;;;6.22;3.65;;;12.30;75.00;;;;;;5063903;28;20090;-67
2024/03/03 09:12:05;;;;;;;5.50;3.75;;;12.40;74.80;;;;;;5061659;28;20056;-66
2024/03/03 09:14:34;;;;;;;6.22;3.90;;;12.40;74.70;;;;;;5065689;28;20647;-65
2024/03/03 09:17:00;;;;;;;5.97;3.30;;;12.50;74.60;;;;;;5064033;28;20028;-66
2024/03/03 09:19:26;;;;;;;4.13;2.58;;;12.50;74.60;;;;;;5067159;28;20024;-66
2024/03/03 09:21:52;;;;;;;6.30;3.70;;;12.60;74.40;;;;;;5064613;28;20021;-67
2024/03/03 09:24:19;;;;;;;5.70;3.17;;;12.50;74.50;;;;;;5065406;28;20357;-64
2024/03/03 09:26:47;;;;;;;5.55;3.40;;;12.50;74.50;;;;;;5066493;28;20009;-65
2024/03/03 09:29:13;;;;;;;5.68;3.40;;;12.50;74.50;;;;;;5059965;28;20189;-65
2024/03/03 09:31:39;;;;;;;5.50;3.22;;;12.60;75.20;;;;;;5064722;28;20562;-66
2024/03/03 09:34:04;;;;;;;5.22;3.22;;;12.60;74.50;;;;;;5061871;28;20033;-67
2024/03/03 09:36:30;;;;;;;5.53;3.63;;;12.70;74.40;;;;;;5065787;28;20499;-69
2024/03/03 09:38:56;;;;;;;5.82;3.50;;;12.70;74.30;;;;;;5066633;28;20032;-68
2024/03/03 09:41:21;;;;;;;5.97;3.15;;;12.80;74.40;;;;;;5062418;28;20471;-65
2024/03/03 09:44:17;;;;;;;4.95;3.08;;;12.90;74.10;;;;;;5068124;28;20708;-66
2024/03/03 09:46:43;;;;;;;5.53;2.97;;;13.10;74.10;;;;;;5063672;28;20033;-66
2024/03/03 09:49:20;;;;;;;5.60;2.88;;;13.10;73.90;;;;;;5066510;28;20029;-66
2024/03/03 09:51:47;;;;;;;5.68;3.80;;;13.20;73.80;;;;;;5065334;28;20118;-66
2024/03/03 09:54:14;;;;;;;7.03;3.88;;;13.30;73.70;;;;;;5063427;28;20028;-66
2024/03/03 09:56:46;;;;;;;4.10;2.75;;;13.40;73.60;;;;;;5065186;28;20051;-67
2024/03/03 09:59:13;;;;;;;4.93;3.00;;;13.40;73.30;;;;;;5064593;28;20067;-66
2024/03/03 10:01:39;;;;;;;5.43;3.53;;;13.40;73.40;;;;;;5062890;28;20835;-66
2024/03/03 10:04:07;;;;;;;6.13;3.60;;;13.30;73.40;;;;;;5071481;28;20019;-66
2024/03/03 10:06:36;;;;;;;4.97;2.90;;;13.30;73.80;;;;;;5064551;28;20029;-66
2024/03/03 10:09:04;;;;;;;4.53;2.70;;;13.40;73.80;;;;;;5059464;28;20021;-66
2024/03/03 10:11:32;;;;;;;4.63;2.88;;;13.50;73.70;;;;;;5066092;28;20039;-66
2024/03/03 10:13:58;;;;;;;4.43;2.70;;;13.60;73.40;;;;;;5073795;28;20025;-66
2024/03/03 10:16:26;;;;;;;7.75;5.13;;;13.70;73.50;;;;;;5058160;28;20025;-67
2024/03/03 10:18:59;;;;;;;7.45;4.25;;;13.80;73.20;;;;;;5067405;28;20035;-65
2024/03/03 10:21:25;;;;;;;6.35;3.70;;;13.90;73.00;;;;;;5067760;28;20036;-68
2024/03/03 10:23:51;;;;;;;5.05;3.42;;;14.00;72.80;;;;;;5070353;28;20024;-68
2024/03/03 10:26:16;;;;;;;6.00;4.25;;;14.10;72.50;;;;;;5065869;28;20035;-66
2024/03/03 10:28:43;;;;;;;7.15;4.10;;;14.00;72.40;;;;;;5069694;28;20160;-66
2024/03/03 10:31:12;;;;;;;5.65;3.50;;;14.00;72.50;;;;;;5069674;28;20043;-66
2024/03/03 10:33:52;;;;;;;7.10;3.72;;;14.00;72.70;;;;;;5066978;28;20483;-67
2024/03/03 10:36:20;;;;;;;5.45;3.38;;;14.10;72.70;;;;;;5069583;28;20115;-66
2024/03/03 10:38:55;;;;;;;6.38;3.58;;;14.10;72.50;;;;;;5067763;28;20020;-67
2024/03/03 10:41:21;;;;;;;7.28;3.85;;;14.20;72.50;;;;;;5068064;28;20750;-66
2024/03/03 10:43:46;;;;;;;5.82;3.40;;;14.30;72.40;;;;;;5067575;28;20047;-66
2024/03/03 10:46:12;;;;;;;5.25;3.72;;;14.40;72.40;;;;;;5065532;28;20048;-67
2024/03/03 10:48:41;;;;;;;7.60;4.40;;;14.50;72.00;;;;;;5067976;28;20034;-66
2024/03/03 10:51:07;;;;;;;8.02;5.10;;;14.60;71.80;;;;;;5066451;28;20094;-67
2024/03/03 10:53:33;;;;;;;5.43;3.80;;;14.70;71.60;;;;;;5066867;28;20073;-66
2024/03/03 10:56:00;;;;;;;5.15;2.85;;;14.80;71.50;;;;;;5068919;28;20044;-64
2024/03/03 10:58:29;;;;;;;5.65;2.90;;;14.90;71.40;;;;;;5066117;28;20038;-67
2024/03/03 11:00:55;;;;;;;4.88;2.90;;;14.90;71.00;;;;;;5066029;28;20024;-66
2024/03/03 11:03:20;;;;;;;5.18;2.97;;;15.00;71.00;;;;;;5067516;28;20028;-64
2024/03/03 11:05:49;;;;;;;4.53;2.83;;;15.00;71.10;;;;;;5069535;28;20036;-66
2024/03/03 11:08:15;;;;;;;4.13;2.70;;;15.10;70.80;;;;;;5057414;28;20028;-66
2024/03/03 11:10:41;;;;;;;3.42;2.10;;;15.20;70.80;;;;;;5061766;28;21028;-66
2024/03/03 11:13:12;;;;;;;4.30;2.50;;;15.30;70.60;;;;;;5063761;28;20028;-64
2024/03/03 11:15:39;;;;;;;4.57;2.33;;;15.50;70.10;;;;;;5065540;28;20056;-67
2024/03/03 11:18:12;;;;;;;4.63;2.80;;;15.70;69.70;;;;;;5064938;28;20020;-65
2024/03/03 11:20:40;;;;;;;3.78;2.22;;;15.60;69.30;;;;;;5065255;28;20522;-65
2024/03/03 11:23:35;;;;;;;5.35;3.08;;;15.80;69.50;;;;;;5066851;28;20082;-65
2024/03/03 11:26:10;;;;;;;4.45;2.33;;;16.00;69.00;;;;;;5063326;28;20055;-69
2024/03/03 11:28:37;;;;;;;5.25;2.22;;;16.00;68.10;;;;;;5066823;28;20141;-64
2024/03/03 11:31:03;;;;;;;4.20;2.60;;;16.10;68.50;;;;;;5065515;28;20470;-65
2024/03/03 11:33:29;;;;;;;2.80;1.95;;;16.20;68.00;;;;;;5064210;28;20025;-67
2024/03/03 11:35:55;;;;;;;2.50;1.77;;;16.20;68.20;;;;;;5064915;28;20056;-65
2024/03/03 11:38:21;;;;;;;3.97;2.03;;;16.30;68.20;;;;;;5063682;28;20098;-66
2024/03/03 11:40:46;;;;;;;2.55;1.73;;;16.40;68.00;;;;;;5065523;28;20379;-66
2024/03/03 11:43:12;;;;;;;2.67;1.85;;;16.40;67.40;;;;;;5066128;28;20039;-66
2024/03/03 11:45:45;;;;;;;3.03;1.92;;;16.30;67.20;;;;;;5066231;28;20402;-65
2024/03/03 11:48:13;;;;;;;3.53;2.13;;;16.30;67.00;;;;;;5065824;28;20510;-67
2024/03/03 11:50:38;;;;;;;3.75;1.90;;;16.20;65.90;;;;;;5067438;28;20103;-66
2024/03/03 11:53:04;;;;;;;2.85;1.75;;;16.20;66.80;;;;;;5066164;28;20107;-65
2024/03/03 11:55:32;;;;;;;3.67;1.90;;;16.20;67.30;;;;;;5069940;28;20032;-63
2024/03/03 11:57:59;;;;;;;1.90;1.50;;;16.30;67.20;;;;;;5064312;28;20024;-67
2024/03/03 12:00:26;;;;;;;2.47;1.65;;;16.40;67.20;;;;;;5066391;28;20214;-66
2024/03/03 12:02:53;;;;;;;3.08;1.42;;;16.50;66.40;;;;;;5066475;28;20058;-65
2024/03/03 12:05:19;;;;;;;1.90;1.30;;;16.60;66.80;;;;;;5061305;28;20657;-69
2024/03/03 12:07:49;;;;;;;2.13;1.40;;;16.70;66.40;;;;;;5064880;28;20059;-65
2024/03/03 12:10:20;;;;;;;1.50;1.10;;;16.90;66.90;;;;;;5066757;28;20564;-65
2024/03/03 12:12:54;;;;;;;1.73;1.13;;;17.10;66.50;;;;;;5066109;28;20063;-64
2024/03/03 12:15:24;;;;;;;2.55;1.20;;;17.00;65.40;;;;;;5065236;28;20039;-66
2024/03/03 12:17:55;;;;;;;1.95;1.27;;;17.00;66.10;;;;;;5064194;28;20031;-66
2024/03/03 12:20:26;;;;;;;2.10;1.00;;;17.10;66.20;;;;;;5073875;28;20043;-65
2024/03/03 12:22:52;;;;;;;1.15;1.00;;;17.20;66.30;;;;;;5070725;28;20437;-65
2024/03/03 12:25:22;;;;;;;2.13;1.27;;;17.30;66.20;;;;;;5066863;28;20025;-68
2024/03/03 12:27:57;;;;;;;2.85;1.42;;;17.40;65.00;;;;;;5068080;28;20132;-65
2024/03/03 12:30:33;;;;;;;2.60;1.80;;;17.40;65.60;;;;;;5064608;28;20059;-65
2024/03/03 12:33:05;;;;;;;2.78;1.67;;;17.50;65.50;;;;;;5065038;28;20028;-65
2024/03/03 12:35:30;;;;;;;3.33;2.10;;;17.60;65.30;;;;;;5066198;28;20103;-65
2024/03/03 12:37:57;;;;;;;3.13;2.30;;;17.60;65.20;;;;;;5067024;28;20041;-65
2024/03/03 12:40:27;;;;;;;3.42;2.00;;;17.60;65.20;;;;;;5067122;28;20035;-66
2024/03/03 12:42:53;;;;;;;3.92;2.40;;;17.70;65.30;;;;;;5064726;28;20432;-65
2024/03/03 12:45:19;;;;;;;4.45;2.63;;;17.70;64.70;;;;;;5063656;28;20059;-64
2024/03/03 12:47:45;;;;;;;2.83;2.08;;;17.70;64.80;;;;;;5066736;28;20044;-66